Wetterdaten: Dienstag, 15.11.2011
Datum Zeit Temp. A. Feuchte A. Luftdruck Regen Wind Richtung Richtung Sonnenschein UV Solar Windben
15.11.2011 00:00 0,8 C 86 % 1023,2 hPa 0,0 mm 0,0 km/h (0 Bft) O 90 0 min 0 UV-I 0 W/m 1,6 km/h (1 Bft)
15.11.2011 00:10 1,0 C 86 % 1023,1 hPa 0,0 mm 0,0 km/h (0 Bft) N 0 0 min 0 UV-I 0 W/m 0,0 km/h (0 Bft)
15.11.2011 00:20 0,9 C 86 % 1023,1 hPa 0,0 mm 0,0 km/h (0 Bft) N 0 0 min 0 UV-I 0 W/m 0,0 km/h (0 Bft)
15.11.2011 00:30 0,8 C 86 % 1022,9 hPa 0,0 mm 0,0 km/h (0 Bft) N 0 0 min 0 UV-I 0 W/m 0,0 km/h (0 Bft)
15.11.2011 00:40 0,6 C 86 % 1023,1 hPa 0,0 mm 0,0 km/h (0 Bft) N 0 0 min 0 UV-I 0 W/m 0,0 km/h (0 Bft)
15.11.2011 00:50 0,4 C 86 % 1023,1 hPa 0,0 mm 0,0 km/h (0 Bft) O 90 0 min 0 UV-I 0 W/m 4,8 km/h (1 Bft)
15.11.2011 01:00 0,8 C 87 % 1023,0 hPa 0,0 mm 1,6 km/h (1 Bft) O 90 0 min 0 UV-I 0 W/m 4,8 km/h (1 Bft)
15.11.2011 01:10 1,4 C 87 % 1022,8 hPa 0,0 mm 0,0 km/h (0 Bft) O 90 0 min 0 UV-I 0 W/m 1,6 km/h (1 Bft)
15.11.2011 01:20 1,4 C 86 % 1022,9 hPa 0,0 mm 0,0 km/h (0 Bft) O 90 0 min 0 UV-I 0 W/m 1,6 km/h (1 Bft)
15.11.2011 01:30 1,3 C 86 % 1022,9 hPa 0,0 mm 0,0 km/h (0 Bft) O 90 0 min 0 UV-I 0 W/m 3,2 km/h (1 Bft)
15.11.2011 01:40 1,4 C 86 % 1022,9 hPa 0,0 mm 0,0 km/h (0 Bft) O 90 0 min 0 UV-I 0 W/m 3,2 km/h (1 Bft)
15.11.2011 01:50 1,7 C 86 % 1022,7 hPa 0,0 mm 0,0 km/h (0 Bft) O 90 0 min 0 UV-I 0 W/m 1,6 km/h (1 Bft)
15.11.2011 02:00 1,6 C 86 % 1022,6 hPa 0,0 mm 0,0 km/h (0 Bft) O 90 0 min 0 UV-I 0 W/m 4,8 km/h (1 Bft)
15.11.2011 02:10 1,7 C 86 % 1022,5 hPa 0,0 mm 0,0 km/h (0 Bft) O 90 0 min 0 UV-I 0 W/m 4,8 km/h (1 Bft)
15.11.2011 02:20 1,7 C 86 % 1022,6 hPa 0,0 mm 0,0 km/h (0 Bft) O 90 0 min 0 UV-I 0 W/m 1,6 km/h (1 Bft)
15.11.2011 02:30 1,7 C 86 % 1022,5 hPa 0,0 mm 0,0 km/h (0 Bft) O 90 0 min 0 UV-I 0 W/m 1,6 km/h (1 Bft)
15.11.2011 02:40 1,8 C 87 % 1022,5 hPa 0,0 mm 1,6 km/h (1 Bft) O 90 0 min 0 UV-I 0 W/m 6,4 km/h (2 Bft)
15.11.2011 02:50 2,0 C 86 % 1022,5 hPa 0,0 mm 0,0 km/h (0 Bft) O 90 0 min 0 UV-I 0 W/m 3,2 km/h (1 Bft)
15.11.2011 03:00 1,9 C 86 % 1022,4 hPa 0,0 mm 0,0 km/h (0 Bft) O 90 0 min 0 UV-I 0 W/m 1,6 km/h (1 Bft)
15.11.2011 03:10 1,6 C 86 % 1022,4 hPa 0,0 mm 0,0 km/h (0 Bft) O 90 0 min 0 UV-I 0 W/m 1,6 km/h (1 Bft)
15.11.2011 03:20 1,3 C 86 % 1022,3 hPa 0,0 mm 0,0 km/h (0 Bft) O 90 0 min 0 UV-I 0 W/m 1,6 km/h (1 Bft)
15.11.2011 03:30 0,9 C 86 % 1022,3 hPa 0,0 mm 0,0 km/h (0 Bft) O 90 0 min 0 UV-I 0 W/m 1,6 km/h (1 Bft)
15.11.2011 03:40 0,7 C 87 % 1022,4 hPa 0,0 mm 0,0 km/h (0 Bft) N 0 0 min 0 UV-I 0 W/m 0,0 km/h (0 Bft)
15.11.2011 03:50 0,6 C 87 % 1022,3 hPa 0,0 mm 0,0 km/h (0 Bft) N 0 0 min 0 UV-I 0 W/m 0,0 km/h (0 Bft)
15.11.2011 04:00 0,3 C 87 % 1022,2 hPa 0,0 mm 0,0 km/h (0 Bft) N 0 0 min 0 UV-I 0 W/m 0,0 km/h (0 Bft)
15.11.2011 04:10 0,1 C 88 % 1022,3 hPa 0,0 mm 0,0 km/h (0 Bft) N 0 0 min 0 UV-I 0 W/m 0,0 km/h (0 Bft)
15.11.2011 04:20 0,0 C 88 % 1022,4 hPa 0,0 mm 0,0 km/h (0 Bft) O 90 0 min 0 UV-I 0 W/m 1,6 km/h (1 Bft)
15.11.2011 04:30 -0,2 C 88 % 1022,4 hPa 0,0 mm 0,0 km/h (0 Bft) O 90 0 min 0 UV-I 0 W/m 3,2 km/h (1 Bft)
15.11.2011 04:40 0,0 C 89 % 1022,4 hPa 0,0 mm 0,0 km/h (0 Bft) O 90 0 min 0 UV-I 0 W/m 1,6 km/h (1 Bft)
15.11.2011 04:50 0,1 C 89 % 1022,4 hPa 0,0 mm 0,0 km/h (0 Bft) O 90 0 min 0 UV-I 0 W/m 3,2 km/h (1 Bft)
15.11.2011 05:00 -0,1 C 88 % 1022,5 hPa 0,0 mm 0,0 km/h (0 Bft) O 90 0 min 0 UV-I 0 W/m 1,6 km/h (1 Bft)
15.11.2011 05:10 -0,3 C 89 % 1022,6 hPa 0,0 mm 0,0 km/h (0 Bft) N 0 0 min 0 UV-I 0 W/m 0,0 km/h (0 Bft)
15.11.2011 05:20 -0,4 C 89 % 1022,5 hPa 0,0 mm 0,0 km/h (0 Bft) O 90 0 min 0 UV-I 0 W/m 1,6 km/h (1 Bft)
15.11.2011 05:30 -0,4 C 89 % 1022,4 hPa 0,0 mm 0,0 km/h (0 Bft) O 90 0 min 0 UV-I 0 W/m 1,6 km/h (1 Bft)
15.11.2011 05:40 -0,2 C 90 % 1022,4 hPa 0,0 mm 0,0 km/h (0 Bft) O 90 0 min 0 UV-I 0 W/m 8,0 km/h (2 Bft)
15.11.2011 05:50 0,2 C 90 % 1022,4 hPa 0,0 mm 1,6 km/h (1 Bft) O 90 0 min 0 UV-I 0 W/m 8,0 km/h (2 Bft)
15.11.2011 06:00 0,7 C 90 % 1022,3 hPa 0,0 mm 1,6 km/h (1 Bft) O 90 0 min 0 UV-I 0 W/m 6,4 km/h (2 Bft)
15.11.2011 06:10 1,0 C 90 % 1022,3 hPa 0,0 mm 1,6 km/h (1 Bft) O 90 0 min 0 UV-I 0 W/m 8,0 km/h (2 Bft)
15.11.2011 06:20 1,1 C 89 % 1022,5 hPa 0,0 mm 1,6 km/h (1 Bft) O 90 0 min 0 UV-I 0 W/m 6,4 km/h (2 Bft)
15.11.2011 06:30 1,2 C 89 % 1022,4 hPa 0,0 mm 1,6 km/h (1 Bft) O-SO 112 0 min 0 UV-I 0 W/m 6,4 km/h (2 Bft)
15.11.2011 06:40 1,2 C 88 % 1022,3 hPa 0,0 mm 0,0 km/h (0 Bft) O-SO 112 0 min 0 UV-I 0 W/m 3,2 km/h (1 Bft)
15.11.2011 06:50 0,9 C 87 % 1022,5 hPa 0,0 mm 0,0 km/h (0 Bft) O-SO 112 0 min 0 UV-I 0 W/m 1,6 km/h (1 Bft)
15.11.2011 07:00 0,4 C 87 % 1022,5 hPa 0,0 mm 0,0 km/h (0 Bft) N 0 0 min 0 UV-I 0 W/m 0,0 km/h (0 Bft)
15.11.2011 07:10 0,2 C 88 % 1022,5 hPa 0,0 mm 0,0 km/h (0 Bft) O-SO 112 0 min 0 UV-I 0 W/m 1,6 km/h (1 Bft)
15.11.2011 07:20 0,2 C 88 % 1022,5 hPa 0,0 mm 1,6 km/h (1 Bft) O-SO 112 0 min 0 UV-I 0 W/m 9,7 km/h (2 Bft)
15.11.2011 07:30 0,4 C 89 % 1022,6 hPa 0,0 mm 1,6 km/h (1 Bft) O-SO 112 0 min 0 UV-I 0 W/m 8,0 km/h (2 Bft)
15.11.2011 07:40 0,8 C 88 % 1022,5 hPa 0,0 mm 1,6 km/h (1 Bft) O-SO 112 0 min 0 UV-I 0 W/m 4,8 km/h (1 Bft)
15.11.2011 07:50 0,9 C 88 % 1022,5 hPa 0,0 mm 1,6 km/h (1 Bft) O-SO 112 0 min 0 UV-I 5 W/m 6,4 km/h (2 Bft)
15.11.2011 08:00 1,1 C 88 % 1022,5 hPa 0,0 mm 1,6 km/h (1 Bft) O-SO 112 0 min 0 UV-I 9 W/m 4,8 km/h (1 Bft)
15.11.2011 08:10 0,9 C 87 % 1022,7 hPa 0,0 mm 0,0 km/h (0 Bft) O-SO 107 0 min 0 UV-I 11 W/m 0,0 km/h (0 Bft)
15.11.2011 08:20 0,8 C 87 % 1022,7 hPa 0,0 mm 0,0 km/h (0 Bft) O-SO 112 0 min 0 UV-I 16 W/m 1,6 km/h (1 Bft)
15.11.2011 08:30 0,8 C 88 % 1022,7 hPa 0,0 mm 0,0 km/h (0 Bft) O-SO 112 0 min 0 UV-I 19 W/m 3,2 km/h (1 Bft)
15.11.2011 08:40 1,1 C 88 % 1022,7 hPa 0,0 mm 0,0 km/h (0 Bft) O-SO 112 0 min 0 UV-I 21 W/m 3,2 km/h (1 Bft)
15.11.2011 08:50 1,4 C 88 % 1022,6 hPa 0,0 mm 0,0 km/h (0 Bft) O-SO 112 0 min 0 UV-I 26 W/m 3,2 km/h (1 Bft)
15.11.2011 09:00 1,6 C 87 % 1022,6 hPa 0,0 mm 0,0 km/h (0 Bft) O-SO 112 0 min 0 UV-I 28 W/m 3,2 km/h (1 Bft)
15.11.2011 09:10 1,8 C 87 % 1022,5 hPa 0,0 mm 0,0 km/h (0 Bft) O-SO 112 0 min 0 UV-I 32 W/m 4,8 km/h (1 Bft)
15.11.2011 09:20 2,2 C 87 % 1022,6 hPa 0,0 mm 0,0 km/h (0 Bft) O-SO 112 0 min 0 UV-I 33 W/m 4,8 km/h (1 Bft)
15.11.2011 09:30 2,6 C 86 % 1022,6 hPa 0,0 mm 3,2 km/h (1 Bft) O-SO 112 0 min 0 UV-I 33 W/m 9,7 km/h (2 Bft)
15.11.2011 09:40 3,2 C 84 % 1022,7 hPa 0,0 mm 3,2 km/h (1 Bft) O 90 0 min 1 UV-I 79 W/m 11,3 km/h (2 Bft)
15.11.2011 09:50 3,8 C 82 % 1022,7 hPa 0,0 mm 3,2 km/h (1 Bft) O-SO 112 10 min 1 UV-I 178 W/m 9,7 km/h (2 Bft)
15.11.2011 10:00 4,4 C 79 % 1022,6 hPa 0,0 mm 3,2 km/h (1 Bft) O 90 10 min 1 UV-I 188 W/m 11,3 km/h (2 Bft)
15.11.2011 10:10 5,0 C 77 % 1022,6 hPa 0,0 mm 4,8 km/h (1 Bft) O-SO 112 10 min 1 UV-I 207 W/m 14,5 km/h (3 Bft)
15.11.2011 10:20 5,4 C 75 % 1022,7 hPa 0,0 mm 6,4 km/h (2 Bft) O 90 10 min 1 UV-I 236 W/m 17,7 km/h (3 Bft)
15.11.2011 10:30 5,8 C 74 % 1022,6 hPa 0,0 mm 3,2 km/h (1 Bft) O 90 10 min 1 UV-I 248 W/m 19,3 km/h (3 Bft)
15.11.2011 10:40 6,0 C 73 % 1022,7 hPa 0,0 mm 3,2 km/h (1 Bft) O 90 10 min 1 UV-I 264 W/m 12,9 km/h (3 Bft)
15.11.2011 10:50 6,3 C 72 % 1022,6 hPa 0,0 mm 3,2 km/h (1 Bft) O 90 10 min 1 UV-I 274 W/m 16,1 km/h (3 Bft)
15.11.2011 11:00 6,5 C 70 % 1022,5 hPa 0,0 mm 3,2 km/h (1 Bft) O 90 10 min 1 UV-I 279 W/m 11,3 km/h (2 Bft)
15.11.2011 11:10 6,7 C 69 % 1022,5 hPa 0,0 mm 4,8 km/h (1 Bft) O-SO 112 10 min 1 UV-I 279 W/m 17,7 km/h (3 Bft)
15.11.2011 11:20 6,9 C 68 % 1022,5 hPa 0,0 mm 4,8 km/h (1 Bft) O-SO 112 10 min 1 UV-I 297 W/m 17,7 km/h (3 Bft)
15.11.2011 11:30 7,1 C 67 % 1022,4 hPa 0,0 mm 6,4 km/h (2 Bft) O-SO 112 10 min 1 UV-I 311 W/m 16,1 km/h (3 Bft)
15.11.2011 11:40 7,3 C 66 % 1022,4 hPa 0,0 mm 4,8 km/h (1 Bft) O-SO 112 10 min 1 UV-I 325 W/m 20,9 km/h (4 Bft)
15.11.2011 11:50 7,6 C 66 % 1022,4 hPa 0,0 mm 3,2 km/h (1 Bft) SO 135 10 min 1 UV-I 320 W/m 12,9 km/h (3 Bft)
15.11.2011 12:00 7,6 C 67 % 1022,4 hPa 0,0 mm 3,2 km/h (1 Bft) O 90 10 min 1 UV-I 311 W/m 11,3 km/h (2 Bft)
15.11.2011 12:10 7,7 C 67 % 1022,5 hPa 0,0 mm 4,8 km/h (1 Bft) O 90 10 min 1 UV-I 306 W/m 11,3 km/h (2 Bft)
15.11.2011 12:20 7,8 C 67 % 1022,2 hPa 0,0 mm 3,2 km/h (1 Bft) O 90 10 min 1 UV-I 311 W/m 11,3 km/h (2 Bft)
15.11.2011 12:30 8,1 C 66 % 1022,2 hPa 0,0 mm 3,2 km/h (1 Bft) O-SO 112 10 min 1 UV-I 325 W/m 9,7 km/h (2 Bft)
15.11.2011 12:40 8,4 C 65 % 1022,1 hPa 0,0 mm 3,2 km/h (1 Bft) O-SO 112 10 min 1 UV-I 323 W/m 9,7 km/h (2 Bft)
15.11.2011 12:50 8,4 C 65 % 1022,1 hPa 0,0 mm 4,8 km/h (1 Bft) O-SO 112 10 min 1 UV-I 316 W/m 11,3 km/h (2 Bft)
15.11.2011 13:00 8,3 C 66 % 1022,0 hPa 0,0 mm 4,8 km/h (1 Bft) O 90 10 min 1 UV-I 308 W/m 14,5 km/h (3 Bft)
15.11.2011 13:10 8,4 C 65 % 1021,8 hPa 0,0 mm 4,8 km/h (1 Bft) O 90 10 min 1 UV-I 299 W/m 9,7 km/h (2 Bft)
15.11.2011 13:20 8,7 C 64 % 1021,8 hPa 0,0 mm 3,2 km/h (1 Bft) O 90 10 min 1 UV-I 272 W/m 11,3 km/h (2 Bft)
15.11.2011 13:30 8,8 C 64 % 1021,8 hPa 0,0 mm 4,8 km/h (1 Bft) O-SO 112 10 min 1 UV-I 262 W/m 14,5 km/h (3 Bft)
15.11.2011 13:40 8,8 C 65 % 1021,9 hPa 0,0 mm 6,4 km/h (2 Bft) O 90 10 min 1 UV-I 251 W/m 16,1 km/h (3 Bft)
15.11.2011 13:50 8,7 C 66 % 1021,7 hPa 0,0 mm 4,8 km/h (1 Bft) O 90 10 min 1 UV-I 262 W/m 11,3 km/h (2 Bft)
15.11.2011 14:00 8,6 C 65 % 1021,7 hPa 0,0 mm 3,2 km/h (1 Bft) O 90 10 min 1 UV-I 264 W/m 11,3 km/h (2 Bft)
15.11.2011 14:10 8,2 C 67 % 1021,6 hPa 0,0 mm 4,8 km/h (1 Bft) O 90 10 min 1 UV-I 227 W/m 11,3 km/h (2 Bft)
15.11.2011 14:20 7,9 C 67 % 1021,6 hPa 0,0 mm 4,8 km/h (1 Bft) O 90 0 min 1 UV-I 120 W/m 11,3 km/h (2 Bft)
15.11.2011 14:30 7,8 C 67 % 1021,5 hPa 0,0 mm 4,8 km/h (1 Bft) O 90 0 min 1 UV-I 113 W/m 11,3 km/h (2 Bft)
15.11.2011 14:40 7,7 C 67 % 1021,5 hPa 0,0 mm 4,8 km/h (1 Bft) O 90 0 min 1 UV-I 109 W/m 16,1 km/h (3 Bft)
15.11.2011 14:50 7,4 C 68 % 1021,5 hPa 0,0 mm 4,8 km/h (1 Bft) O 90 0 min 1 UV-I 104 W/m 17,7 km/h (3 Bft)
15.11.2011 15:00 7,2 C 68 % 1021,5 hPa 0,0 mm 6,4 km/h (2 Bft) O-SO 112 10 min 0 UV-I 121 W/m 17,7 km/h (3 Bft)
15.11.2011 15:10 7,1 C 68 % 1021,6 hPa 0,0 mm 8,0 km/h (2 Bft) O-SO 112 10 min 0 UV-I 118 W/m 17,7 km/h (3 Bft)
15.11.2011 15:20 6,9 C 69 % 1021,6 hPa 0,0 mm 6,4 km/h (2 Bft) O-SO 112 0 min 0 UV-I 76 W/m 17,7 km/h (3 Bft)
15.11.2011 15:30 6,8 C 70 % 1021,6 hPa 0,0 mm 4,8 km/h (1 Bft) O 90 0 min 0 UV-I 56 W/m 16,1 km/h (3 Bft)
15.11.2011 15:40 6,6 C 70 % 1021,7 hPa 0,0 mm 4,8 km/h (1 Bft) O-SO 112 0 min 0 UV-I 53 W/m 16,1 km/h (3 Bft)
15.11.2011 15:50 6,4 C 71 % 1021,8 hPa 0,0 mm 3,2 km/h (1 Bft) O-SO 112 10 min 0 UV-I 49 W/m 11,3 km/h (2 Bft)
15.11.2011 16:00 6,2 C 71 % 1021,8 hPa 0,0 mm 4,8 km/h (1 Bft) O-SO 112 10 min 0 UV-I 40 W/m 11,3 km/h (2 Bft)
15.11.2011 16:10 6,0 C 72 % 1021,9 hPa 0,0 mm 1,8 km/h (1 Bft) O-SO 123 10 min 0 UV-I 28 W/m 8,0 km/h (2 Bft)
15.11.2011 16:20 5,9 C 72 % 1021,9 hPa 0,0 mm 4,8 km/h (1 Bft) O 90 10 min 0 UV-I 26 W/m 12,9 km/h (3 Bft)
15.11.2011 16:30 5,7 C 72 % 1022,0 hPa 0,0 mm 6,4 km/h (2 Bft) O 90 0 min 0 UV-I 16 W/m 16,1 km/h (3 Bft)
15.11.2011 16:40 5,6 C 76 % 1021,9 hPa 0,0 mm 4,8 km/h (1 Bft) O-SO 112 0 min 0 UV-I 7 W/m 16,1 km/h (3 Bft)
15.11.2011 16:50 5,4 C 72 % 1022,0 hPa 0,0 mm 3,2 km/h (1 Bft) O-SO 112 0 min 0 UV-I 5 W/m 14,5 km/h (3 Bft)
15.11.2011 17:00 5,2 C 73 % 1022,1 hPa 0,0 mm 3,2 km/h (1 Bft) O-SO 112 0 min 0 UV-I 0 W/m 9,7 km/h (2 Bft)
15.11.2011 17:10 4,9 C 73 % 1022,0 hPa 0,0 mm 3,2 km/h (1 Bft) O-SO 112 0 min 0 UV-I 0 W/m 9,7 km/h (2 Bft)
15.11.2011 17:20 4,7 C 74 % 1022,0 hPa 0,0 mm 1,6 km/h (1 Bft) O 90 0 min 0 UV-I 0 W/m 6,4 km/h (2 Bft)
15.11.2011 17:30 4,6 C 74 % 1022,0 hPa 0,0 mm 1,6 km/h (1 Bft) SO 135 0 min 0 UV-I 0 W/m 9,7 km/h (2 Bft)
15.11.2011 17:40 4,4 C 74 % 1022,1 hPa 0,0 mm 3,2 km/h (1 Bft) O-SO 112 0 min 0 UV-I 0 W/m 9,7 km/h (2 Bft)
15.11.2011 17:50 4,4 C 74 % 1022,2 hPa 0,0 mm 4,8 km/h (1 Bft) O-SO 112 0 min 0 UV-I 0 W/m 9,7 km/h (2 Bft)
15.11.2011 18:00 4,2 C 75 % 1022,1 hPa 0,0 mm 1,6 km/h (1 Bft) O-SO 112 0 min 0 UV-I 0 W/m 9,7 km/h (2 Bft)
15.11.2011 18:10 4,1 C 75 % 1022,2 hPa 0,0 mm 3,2 km/h (1 Bft) O-SO 112 0 min 0 UV-I 0 W/m 9,7 km/h (2 Bft)
15.11.2011 18:20 4,1 C 75 % 1022,2 hPa 0,0 mm 6,4 km/h (2 Bft) O-SO 112 0 min 0 UV-I 0 W/m 16,1 km/h (3 Bft)
15.11.2011 18:30 4,0 C 75 % 1022,4 hPa 0,0 mm 6,4 km/h (2 Bft) O 90 0 min 0 UV-I 0 W/m 11,3 km/h (2 Bft)
15.11.2011 18:40 3,8 C 76 % 1022,4 hPa 0,0 mm 6,4 km/h (2 Bft) O-SO 112 0 min 0 UV-I 0 W/m 12,9 km/h (3 Bft)
15.11.2011 18:50 3,7 C 76 % 1022,4 hPa 0,0 mm 6,4 km/h (2 Bft) O-SO 112 0 min 0 UV-I 0 W/m 11,3 km/h (2 Bft)
15.11.2011 19:00 3,6 C 76 % 1022,4 hPa 0,0 mm 6,4 km/h (2 Bft) O-SO 112 0 min 0 UV-I 0 W/m 11,3 km/h (2 Bft)
15.11.2011 19:10 3,4 C 76 % 1022,4 hPa 0,0 mm 6,4 km/h (2 Bft) O-SO 112 0 min 0 UV-I 0 W/m 17,7 km/h (3 Bft)
15.11.2011 19:20 3,3 C 76 % 1022,3 hPa 0,0 mm 6,4 km/h (2 Bft) O-SO 112 0 min 0 UV-I 0 W/m 11,3 km/h (2 Bft)
15.11.2011 19:30 3,2 C 77 % 1022,2 hPa 0,0 mm 6,4 km/h (2 Bft) O-SO 112 0 min 0 UV-I 0 W/m 11,3 km/h (2 Bft)
15.11.2011 19:40 2,9 C 77 % 1022,3 hPa 0,0 mm 3,2 km/h (1 Bft) O-SO 112 0 min 0 UV-I 0 W/m 8,0 km/h (2 Bft)
15.11.2011 19:50 2,7 C 83 % 1022,4 hPa 0,0 mm 1,6 km/h (1 Bft) O 90 0 min 0 UV-I 0 W/m 6,4 km/h (2 Bft)
15.11.2011 20:00 2,6 C 78 % 1022,4 hPa 0,0 mm 0,0 km/h (0 Bft) O-SO 112 0 min 0 UV-I 0 W/m 4,8 km/h (1 Bft)
15.11.2011 20:10 2,3 C 78 % 1022,4 hPa 0,0 mm 1,6 km/h (1 Bft) O 90 0 min 0 UV-I 0 W/m 6,4 km/h (2 Bft)
15.11.2011 20:20 2,2 C 78 % 1022,3 hPa 0,0 mm 1,6 km/h (1 Bft) O 90 0 min 0 UV-I 0 W/m 6,4 km/h (2 Bft)
15.11.2011 20:30 2,2 C 78 % 1022,4 hPa 0,0 mm 1,6 km/h (1 Bft) SO 135 0 min 0 UV-I 0 W/m 8,0 km/h (2 Bft)
15.11.2011 20:40 2,1 C 78 % 1022,4 hPa 0,0 mm 0,0 km/h (0 Bft) O-SO 112 0 min 0 UV-I 0 W/m 3,2 km/h (1 Bft)
15.11.2011 20:50 1,8 C 79 % 1022,5 hPa 0,0 mm 0,0 km/h (0 Bft) S-SO 157 0 min 0 UV-I 0 W/m 3,2 km/h (1 Bft)
15.11.2011 21:00 1,7 C 79 % 1022,5 hPa 0,0 mm 0,0 km/h (0 Bft) S-SO 157 0 min 0 UV-I 0 W/m 3,2 km/h (1 Bft)
15.11.2011 21:10 1,4 C 80 % 1022,4 hPa 0,0 mm 0,0 km/h (0 Bft) S-SO 157 0 min 0 UV-I 0 W/m 8,0 km/h (2 Bft)
15.11.2011 21:20 1,4 C 80 % 1022,3 hPa 0,0 mm 3,2 km/h (1 Bft) O-SO 112 0 min 0 UV-I 0 W/m 11,3 km/h (2 Bft)
15.11.2011 21:30 1,4 C 80 % 1022,5 hPa 0,0 mm 4,8 km/h (1 Bft) O 90 0 min 0 UV-I 0 W/m 16,1 km/h (3 Bft)
15.11.2011 21:40 1,4 C 80 % 1022,4 hPa 0,0 mm 4,8 km/h (1 Bft) O 90 0 min 0 UV-I 0 W/m 11,3 km/h (2 Bft)
15.11.2011 21:50 1,3 C 81 % 1022,5 hPa 0,0 mm 4,8 km/h (1 Bft) O 90 0 min 0 UV-I 0 W/m 16,1 km/h (3 Bft)
15.11.2011 22:00 1,3 C 82 % 1022,5 hPa 0,0 mm 6,4 km/h (2 Bft) O 90 0 min 0 UV-I 0 W/m 17,7 km/h (3 Bft)
15.11.2011 22:10 1,2 C 82 % 1022,7 hPa 0,0 mm 6,4 km/h (2 Bft) O 90 0 min 0 UV-I 0 W/m 17,7 km/h (3 Bft)
15.11.2011 22:20 0,9 C 83 % 1022,9 hPa 0,0 mm 4,8 km/h (1 Bft) O 90 0 min 0 UV-I 0 W/m 14,5 km/h (3 Bft)
15.11.2011 22:30 0,7 C 84 % 1023,0 hPa 0,0 mm 6,4 km/h (2 Bft) O 90 0 min 0 UV-I 0 W/m 16,1 km/h (3 Bft)
15.11.2011 22:40 0,6 C 84 % 1022,9 hPa 0,0 mm 4,8 km/h (1 Bft) O 90 0 min 0 UV-I 0 W/m 14,5 km/h (3 Bft)
15.11.2011 22:50 0,5 C 85 % 1023,0 hPa 0,0 mm 6,4 km/h (2 Bft) O 90 0 min 0 UV-I 0 W/m 14,5 km/h (3 Bft)
15.11.2011 23:00 0,4 C 86 % 1022,9 hPa 0,0 mm 4,8 km/h (1 Bft) O 90 0 min 0 UV-I 0 W/m 9,7 km/h (2 Bft)
15.11.2011 23:10 0,3 C 86 % 1022,7 hPa 0,0 mm 6,4 km/h (2 Bft) O-SO 112 0 min 0 UV-I 0 W/m 11,3 km/h (2 Bft)
15.11.2011 23:20 0,2 C 86 % 1022,7 hPa 0,0 mm 3,2 km/h (1 Bft) O 90 0 min 0 UV-I 0 W/m 11,3 km/h (2 Bft)
15.11.2011 23:30 0,1 C 87 % 1022,8 hPa 0,0 mm 3,2 km/h (1 Bft) O 90 0 min 0 UV-I 0 W/m 9,7 km/h (2 Bft)
15.11.2011 23:40 0,1 C 87 % 1022,7 hPa 0,0 mm 3,2 km/h (1 Bft) O 90 0 min 0 UV-I 0 W/m 9,7 km/h (2 Bft)
15.11.2011 23:50 0,1 C 87 % 1022,8 hPa 0,0 mm 1,6 km/h (1 Bft) O 90 0 min 0 UV-I 0 W/m 6,4 km/h (2 Bft)
_ Min-Zeit 05:20 13:20 14:30 - 00:00 - - - - - 00:10
Minimum _ -0,4 C 64 % 1021,5 hPa - 0,0 km/h (0 Bft) - - - - - 0,0 km/h (0 Bft)
_ Max-Zeit 13:30 05:40 00:00 00:00 15:10 - - 09:50 11:40 11:40 11:40
Maximum _ 8,9 C 90 % 1023,2 hPa 0,0 mm 8,0 km/h
O-SO (2 Bft)
- - 10 min 1 UV-I 325 W/m 20,9 km/h
S-SW (4 Bft)
Durchschnitt _ 3,2 C 80 % 1022,4 hPa #0,0 mm 2,6 km/h (1 Bft) O - #5:30 h 1 UV-I 160 W/m 8,6 km/h (2 Bft)